sensor_id;sensor_type;location;lat;lon;timestamp;P1;P4;P2;P0;N10;N4;N25;N1;N05;TS
65988;SPS30;53592;51.402;6.054;2023-09-19T00:01:32;3.08;2.99;2.53;1.86;14.93;14.91;14.79;14.18;11.74;0.68
65988;SPS30;53592;51.402;6.054;2023-09-19T00:03:58;3.12;3.02;2.56;1.87;15.06;15.04;14.92;14.30;11.82;0.69
65988;SPS30;53592;51.402;6.054;2023-09-19T00:06:25;3.51;3.40;2.88;2.10;16.92;16.89;16.76;16.06;13.27;0.69
65988;SPS30;53592;51.402;6.054;2023-09-19T00:08:51;3.46;3.35;2.80;2.00;16.05;16.02;15.88;15.15;12.42;0.73
65988;SPS30;53592;51.402;6.054;2023-09-19T00:11:17;3.54;3.43;2.85;2.03;16.32;16.29;16.14;15.39;12.61;0.72
65988;SPS30;53592;51.402;6.054;2023-09-19T00:13:43;3.43;3.32;2.77;1.98;15.94;15.91;15.77;15.05;12.35;0.72
65988;SPS30;53592;51.402;6.054;2023-09-19T00:16:09;3.42;3.31;2.74;1.93;15.54;15.51;15.36;14.62;11.94;0.72
65988;SPS30;53592;51.402;6.054;2023-09-19T00:18:39;3.71;3.59;2.97;2.09;16.82;16.79;16.63;15.82;12.92;0.72
65988;SPS30;53592;51.402;6.054;2023-09-19T00:21:07;3.61;3.48;2.85;1.96;15.78;15.75;15.59;14.77;11.97;0.75
65988;SPS30;53592;51.402;6.054;2023-09-19T00:23:32;3.72;3.59;2.93;1.99;16.07;16.03;15.86;15.00;12.13;0.76
65988;SPS30;53592;51.402;6.054;2023-09-19T00:26:00;3.46;3.34;2.72;1.86;15.01;14.98;14.82;14.03;11.35;0.76
65988;SPS30;53592;51.402;6.054;2023-09-19T00:28:26;3.63;3.50;2.88;1.99;16.02;15.99;15.83;15.01;12.19;0.76
65988;SPS30;53592;51.402;6.054;2023-09-19T00:30:52;3.72;3.60;2.97;2.08;16.75;16.72;16.56;15.74;12.84;0.74
65988;SPS30;53592;51.402;6.054;2023-09-19T00:33:20;3.35;3.24;2.71;1.93;15.53;15.50;15.36;14.65;12.02;0.73
65988;SPS30;53592;51.402;6.054;2023-09-19T00:35:53;3.59;3.48;2.91;2.09;16.79;16.76;16.61;15.86;13.03;0.72
65988;SPS30;53592;51.402;6.054;2023-09-19T00:38:20;3.27;3.17;2.66;1.92;15.42;15.39;15.26;14.59;12.00;0.71
65988;SPS30;53592;51.402;6.054;2023-09-19T00:40:48;3.33;3.22;2.66;1.87;15.06;15.03;14.89;14.16;11.56;0.73
65988;SPS30;53592;51.402;6.054;2023-09-19T00:43:16;3.43;3.32;2.77;1.98;15.95;15.92;15.78;15.06;12.36;0.72
65988;SPS30;53592;51.402;6.054;2023-09-19T00:45:43;3.53;3.42;2.83;2.00;16.11;16.08;15.93;15.17;12.41;0.73
65988;SPS30;53592;51.402;6.054;2023-09-19T00:48:10;3.30;3.19;2.62;1.81;14.61;14.58;14.43;13.69;11.13;0.73
65988;SPS30;53592;51.402;6.054;2023-09-19T00:50:37;3.45;3.34;2.75;1.91;15.39;15.36;15.21;14.44;11.75;0.73
65988;SPS30;53592;51.402;6.054;2023-09-19T00:53:07;2.96;2.87;2.38;1.68;13.56;13.53;13.41;12.77;10.45;0.73
65988;SPS30;53592;51.402;6.054;2023-09-19T00:55:35;3.39;3.27;2.70;1.89;15.23;15.20;15.05;14.31;11.67;0.74
65988;SPS30;53592;51.402;6.054;2023-09-19T00:58:06;3.32;3.21;2.68;1.92;15.46;15.44;15.30;14.60;11.99;0.71
65988;SPS30;53592;51.402;6.054;2023-09-19T01:00:33;3.27;3.17;2.63;1.86;14.94;14.92;14.78;14.07;11.51;0.73
65988;SPS30;53592;51.402;6.054;2023-09-19T01:03:02;3.68;3.55;2.90;1.99;15.99;15.96;15.79;14.94;12.09;0.74
65988;SPS30;53592;51.402;6.054;2023-09-19T01:05:29;3.69;3.56;2.95;2.07;16.63;16.60;16.44;15.63;12.75;0.74
65988;SPS30;53592;51.402;6.054;2023-09-19T01:07:55;3.65;3.52;2.87;1.95;15.70;15.67;15.50;14.65;11.83;0.76
65988;SPS30;53592;51.402;6.054;2023-09-19T01:10:20;3.76;3.62;2.94;1.98;15.92;15.88;15.71;14.82;11.93;0.78
65988;SPS30;53592;51.402;6.054;2023-09-19T01:13:05;3.49;3.37;2.72;1.83;14.72;14.69;14.53;13.70;11.01;0.77
65988;SPS30;53592;51.402;6.054;2023-09-19T01:16:04;3.86;3.71;2.99;1.98;15.95;15.92;15.73;14.79;11.84;0.78
65988;SPS30;53592;51.402;6.054;2023-09-19T01:18:52;3.87;3.73;2.99;1.97;15.87;15.84;15.65;14.69;11.74;0.78
65988;SPS30;53592;51.402;6.054;2023-09-19T01:21:30;3.56;3.44;2.83;1.97;15.84;15.81;15.65;14.86;12.09;0.75
65988;SPS30;53592;51.402;6.054;2023-09-19T01:29:45;3.15;3.05;2.55;1.82;14.63;14.60;14.47;13.81;11.33;0.74
65988;SPS30;53592;51.402;6.054;2023-09-19T01:32:13;3.05;2.95;2.47;1.77;14.21;14.19;14.06;13.42;11.02;0.75
65988;SPS30;53592;51.402;6.054;2023-09-19T01:34:56;3.67;3.55;2.95;2.08;16.76;16.73;16.58;15.79;12.91;0.77
65988;SPS30;53592;51.402;6.054;2023-09-19T01:37:25;3.35;3.23;2.66;1.85;14.89;14.86;14.71;13.96;11.36;0.79
65988;SPS30;53592;51.402;6.054;2023-09-19T01:39:52;3.16;3.05;2.53;1.78;14.31;14.28;14.15;13.46;10.99;0.77
65988;SPS30;53592;51.402;6.054;2023-09-19T01:45:46;3.49;3.38;2.81;2.01;16.13;16.11;15.96;15.22;12.48;0.73
65988;SPS30;53592;51.402;6.054;2023-09-19T01:51:26;3.10;3.00;2.52;1.82;14.67;14.64;14.52;13.88;11.44;0.73
65988;SPS30;53592;51.402;6.054;2023-09-19T01:54:09;3.35;3.23;2.68;1.88;15.17;15.14;15.00;14.27;11.65;0.74
65988;SPS30;53592;51.402;6.054;2023-09-19T01:56:40;3.48;3.36;2.77;1.92;15.47;15.44;15.28;14.51;11.80;0.75
65988;SPS30;53592;51.402;6.054;2023-09-19T01:59:16;3.61;3.48;2.86;1.97;15.84;15.81;15.65;14.83;12.03;0.75
65988;SPS30;53592;51.402;6.054;2023-09-19T02:01:49;3.49;3.38;2.83;2.04;16.43;16.40;16.26;15.54;12.78;0.73
65988;SPS30;53592;51.402;6.054;2023-09-19T02:04:18;3.19;3.09;2.60;1.89;15.22;15.19;15.06;14.42;11.89;0.73
65988;SPS30;53592;51.402;6.054;2023-09-19T02:06:43;3.57;3.46;2.88;2.05;16.51;16.48;16.33;15.57;12.76;0.73
65988;SPS30;53592;51.402;6.054;2023-09-19T02:09:12;3.44;3.33;2.76;1.95;15.67;15.65;15.50;14.75;12.06;0.73
65988;SPS30;53592;51.402;6.054;2023-09-19T02:11:39;3.50;3.38;2.78;1.93;15.53;15.50;15.35;14.56;11.84;0.74
65988;SPS30;53592;51.402;6.054;2023-09-19T02:14:06;3.51;3.39;2.79;1.94;15.60;15.57;15.42;14.63;11.90;0.72
65988;SPS30;53592;51.402;6.054;2023-09-19T02:16:33;3.12;3.02;2.51;1.78;14.30;14.28;14.15;13.48;11.03;0.71
65988;SPS30;53592;51.402;6.054;2023-09-19T02:18:59;3.07;2.97;2.47;1.75;14.08;14.05;13.92;13.27;10.86;0.71
65988;SPS30;53592;51.402;6.054;2023-09-19T02:21:26;3.16;3.06;2.57;1.85;14.88;14.86;14.73;14.08;11.59;0.72
65988;SPS30;53592;51.402;6.054;2023-09-19T02:23:55;2.91;2.82;2.36;1.70;13.66;13.63;13.52;12.91;10.62;0.73
65988;SPS30;53592;51.402;6.054;2023-09-19T02:26:21;3.26;3.15;2.61;1.84;14.81;14.78;14.64;13.93;11.38;0.76
65988;SPS30;53592;51.402;6.054;2023-09-19T02:28:50;3.31;3.20;2.64;1.84;14.84;14.81;14.67;13.93;11.35;0.76
65988;SPS30;53592;51.402;6.054;2023-09-19T02:31:16;3.20;3.10;2.57;1.82;14.62;14.60;14.46;13.77;11.26;0.76
65988;SPS30;53592;51.402;6.054;2023-09-19T02:33:42;3.27;3.17;2.66;1.92;15.46;15.44;15.31;14.64;12.06;0.74
65988;SPS30;53592;51.402;6.054;2023-09-19T02:36:08;3.39;3.29;2.75;1.97;15.81;15.79;15.65;14.94;12.26;0.75
65988;SPS30;53592;51.402;6.054;2023-09-19T02:38:34;3.34;3.23;2.71;1.94;15.64;15.62;15.48;14.79;12.15;0.75
65988;SPS30;53592;51.402;6.054;2023-09-19T02:40:59;3.23;3.14;2.64;1.91;15.40;15.37;15.24;14.59;12.02;0.75
65988;SPS30;53592;51.402;6.054;2023-09-19T02:43:28;3.23;3.13;2.61;1.87;15.04;15.02;14.89;14.21;11.67;0.74
65988;SPS30;53592;51.402;6.054;2023-09-19T02:45:53;3.03;2.94;2.46;1.78;14.31;14.29;14.16;13.54;11.15;0.74
65988;SPS30;53592;51.402;6.054;2023-09-19T02:48:22;3.14;3.04;2.52;1.78;14.32;14.30;14.16;13.48;11.03;0.75
65988;SPS30;53592;51.402;6.054;2023-09-19T02:50:51;3.15;3.05;2.54;1.82;14.64;14.61;14.48;13.82;11.35;0.75
65988;SPS30;53592;51.402;6.054;2023-09-19T02:53:17;3.10;3.00;2.51;1.80;14.46;14.43;14.30;13.66;11.22;0.75
65988;SPS30;53592;51.402;6.054;2023-09-19T02:55:44;3.21;3.10;2.59;1.85;14.89;14.87;14.73;14.06;11.54;0.76
65988;SPS30;53592;51.402;6.054;2023-09-19T02:58:09;3.29;3.18;2.67;1.92;15.42;15.40;15.26;14.58;11.99;0.74
65988;SPS30;53592;51.402;6.054;2023-09-19T03:00:36;3.33;3.23;2.72;1.98;15.88;15.86;15.72;15.05;12.41;0.73
65988;SPS30;53592;51.402;6.054;2023-09-19T03:03:02;2.90;2.81;2.36;1.70;13.69;13.66;13.55;12.95;10.66;0.73
65988;SPS30;53592;51.402;6.054;2023-09-19T03:05:28;3.12;3.03;2.55;1.86;14.95;14.93;14.80;14.17;11.70;0.72
65988;SPS30;53592;51.402;6.054;2023-09-19T03:07:58;3.32;3.22;2.70;1.95;15.72;15.69;15.56;14.88;12.26;0.73
65988;SPS30;53592;51.402;6.054;2023-09-19T03:10:26;3.19;3.08;2.56;1.81;14.53;14.50;14.37;13.68;11.18;0.74
65988;SPS30;53592;51.402;6.054;2023-09-19T03:12:53;3.22;3.11;2.57;1.80;14.50;14.47;14.33;13.62;11.11;0.75
65988;SPS30;53592;51.402;6.054;2023-09-19T03:15:18;3.04;2.93;2.40;1.66;13.34;13.31;13.18;12.49;10.13;0.76
65988;SPS30;53592;51.402;6.054;2023-09-19T03:17:44;3.17;3.06;2.52;1.76;14.14;14.11;13.97;13.27;10.80;0.75
65988;SPS30;53592;51.402;6.054;2023-09-19T03:20:11;2.99;2.89;2.39;1.66;13.38;13.36;13.23;12.56;10.23;0.74
65988;SPS30;53592;51.402;6.054;2023-09-19T03:22:39;3.30;3.19;2.63;1.84;14.81;14.78;14.64;13.91;11.34;0.73
65988;SPS30;53592;51.402;6.054;2023-09-19T03:25:05;2.87;2.78;2.29;1.61;12.92;12.90;12.77;12.14;9.90;0.72
65988;SPS30;53592;51.402;6.054;2023-09-19T03:27:36;3.16;3.06;2.53;1.78;14.36;14.33;14.20;13.51;11.03;0.72
65988;SPS30;53592;51.402;6.054;2023-09-19T03:30:02;3.48;3.36;2.77;1.92;15.43;15.40;15.25;14.46;11.76;0.73
65988;SPS30;53592;51.402;6.054;2023-09-19T03:32:32;3.36;3.24;2.63;1.78;14.32;14.29;14.13;13.34;10.76;0.75
65988;SPS30;53592;51.402;6.054;2023-09-19T03:35:00;3.40;3.27;2.61;1.69;13.66;13.63;13.46;12.60;10.02;0.78
65988;SPS30;53592;51.402;6.054;2023-09-19T03:37:25;3.89;3.74;2.99;1.96;15.77;15.74;15.54;14.57;11.61;0.78
65988;SPS30;53592;51.402;6.054;2023-09-19T03:39:51;3.45;3.33;2.70;1.83;14.76;14.73;14.57;13.76;11.11;0.75
65988;SPS30;53592;51.402;6.054;2023-09-19T03:42:16;3.37;3.24;2.60;1.71;13.79;13.76;13.60;12.77;10.19;0.74
65988;SPS30;53592;51.402;6.054;2023-09-19T03:44:42;3.14;3.03;2.45;1.64;13.20;13.17;13.02;12.27;9.86;0.75
65988;SPS30;53592;51.402;6.054;2023-09-19T03:47:08;3.30;3.18;2.60;1.77;14.23;14.21;14.05;13.29;10.74;0.75
65988;SPS30;53592;51.402;6.054;2023-09-19T03:49:33;3.49;3.36;2.73;1.85;14.90;14.87;14.71;13.89;11.21;0.76
65988;SPS30;53592;51.402;6.054;2023-09-19T03:51:59;3.54;3.41;2.75;1.84;14.80;14.77;14.60;13.74;11.03;0.77
65988;SPS30;53592;51.402;6.054;2023-09-19T03:54:24;3.63;3.50;2.87;1.98;15.91;15.88;15.72;14.89;12.08;0.76
65988;SPS30;53592;51.402;6.054;2023-09-19T03:56:50;3.19;3.09;2.55;1.78;14.33;14.30;14.16;13.46;10.97;0.76
65988;SPS30;53592;51.402;6.054;2023-09-19T03:59:15;2.86;2.78;2.36;1.74;13.97;13.95;13.84;13.29;11.01;0.71
65988;SPS30;53592;51.402;6.054;2023-09-19T04:01:41;3.42;3.32;2.82;2.09;16.82;16.80;16.67;16.01;13.28;0.70
65988;SPS30;53592;51.402;6.054;2023-09-19T04:04:06;3.18;3.09;2.63;1.95;15.71;15.69;15.56;14.95;12.41;0.69
65988;SPS30;53592;51.402;6.054;2023-09-19T04:06:34;2.89;2.81;2.38;1.75;14.06;14.04;13.93;13.36;11.06;0.69
65988;SPS30;53592;51.402;6.054;2023-09-19T04:09:00;3.09;3.01;2.61;2.01;16.10;16.08;15.97;15.44;12.93;0.66
65988;SPS30;53592;51.402;6.054;2023-09-19T04:11:32;2.92;2.85;2.48;1.91;15.31;15.29;15.19;14.69;12.32;0.67
65988;SPS30;53592;51.402;6.054;2023-09-19T04:13:58;3.06;2.97;2.53;1.87;15.06;15.04;14.92;14.34;11.89;0.69
65988;SPS30;53592;51.402;6.054;2023-09-19T04:16:24;3.14;3.05;2.59;1.92;15.42;15.40;15.28;14.67;12.17;0.69
65988;SPS30;53592;51.402;6.054;2023-09-19T04:18:49;2.85;2.76;2.32;1.67;13.46;13.43;13.32;12.73;10.48;0.72
65988;SPS30;53592;51.402;6.054;2023-09-19T04:21:15;3.09;2.98;2.45;1.70;13.71;13.68;13.55;12.86;10.46;0.74
65988;SPS30;53592;51.402;6.054;2023-09-19T04:23:41;3.38;3.26;2.64;1.78;14.37;14.34;14.18;13.38;10.78;0.77
65988;SPS30;53592;51.402;6.054;2023-09-19T04:26:08;4.01;3.86;3.13;2.11;17.01;16.98;16.79;15.84;12.76;0.78
65988;SPS30;53592;51.402;6.054;2023-09-19T04:28:33;3.67;3.53;2.86;1.91;15.39;15.36;15.18;14.31;11.49;0.79
65988;SPS30;53592;51.402;6.054;2023-09-19T04:30:59;3.63;3.50;2.84;1.93;15.52;15.49;15.32;14.47;11.68;0.76
65988;SPS30;53592;51.402;6.054;2023-09-19T04:33:25;3.31;3.20;2.66;1.88;15.15;15.13;14.98;14.27;11.68;0.72
65988;SPS30;53592;51.402;6.054;2023-09-19T04:35:52;3.18;3.08;2.58;1.85;14.89;14.87;14.74;14.08;11.57;0.73
65988;SPS30;53592;51.402;6.054;2023-09-19T04:38:18;3.15;3.05;2.58;1.88;15.09;15.07;14.94;14.31;11.81;0.72
65988;SPS30;53592;51.402;6.054;2023-09-19T04:40:44;3.31;3.21;2.70;1.95;15.71;15.68;15.55;14.87;12.25;0.72
65988;SPS30;53592;51.402;6.054;2023-09-19T04:43:13;3.15;3.05;2.55;1.83;14.75;14.73;14.60;13.94;11.46;0.72
65988;SPS30;53592;51.402;6.054;2023-09-19T04:45:40;3.34;3.24;2.73;2.00;16.05;16.02;15.89;15.22;12.57;0.71
65988;SPS30;53592;51.402;6.054;2023-09-19T04:48:06;3.11;3.02;2.58;1.92;15.41;15.39;15.27;14.68;12.19;0.70
65988;SPS30;53592;51.402;6.054;2023-09-19T04:50:32;2.82;2.75;2.39;1.84;14.75;14.73;14.64;14.15;11.85;0.67
65988;SPS30;53592;51.402;6.054;2023-09-19T04:52:59;3.43;3.34;2.86;2.16;17.31;17.29;17.16;16.53;13.77;0.70
65988;SPS30;53592;51.402;6.054;2023-09-19T04:55:26;3.36;3.26;2.74;1.99;16.02;15.99;15.86;15.18;12.52;0.73
65988;SPS30;53592;51.402;6.054;2023-09-19T04:57:52;3.30;3.21;2.74;2.04;16.36;16.34;16.22;15.59;12.95;0.70
65988;SPS30;53592;51.402;6.054;2023-09-19T05:00:22;3.13;3.04;2.60;1.93;15.53;15.51;15.39;14.80;12.29;0.71
65988;SPS30;53592;51.402;6.054;2023-09-19T05:02:56;3.21;3.11;2.61;1.88;15.13;15.10;14.97;14.31;11.78;0.73
65988;SPS30;53592;51.402;6.054;2023-09-19T05:05:22;3.31;3.20;2.69;1.95;15.64;15.62;15.48;14.81;12.19;0.73
65988;SPS30;53592;51.402;6.054;2023-09-19T05:07:50;3.31;3.21;2.72;2.00;16.07;16.05;15.92;15.27;12.64;0.72
65988;SPS30;53592;51.402;6.054;2023-09-19T05:10:16;3.05;2.96;2.52;1.87;15.04;15.01;14.90;14.32;11.88;0.72
65988;SPS30;53592;51.402;6.054;2023-09-19T05:12:43;3.10;3.01;2.55;1.87;15.05;15.03;14.90;14.30;11.83;0.73
65988;SPS30;53592;51.402;6.054;2023-09-19T05:15:12;3.02;2.93;2.48;1.81;14.57;14.55;14.43;13.83;11.43;0.74
65988;SPS30;53592;51.402;6.054;2023-09-19T05:17:39;3.20;3.10;2.63;1.93;15.51;15.49;15.36;14.73;12.19;0.73
65988;SPS30;53592;51.402;6.054;2023-09-19T05:20:05;3.35;3.25;2.74;1.99;15.98;15.95;15.82;15.14;12.48;0.74
65988;SPS30;53592;51.402;6.054;2023-09-19T05:22:49;3.52;3.41;2.85;2.04;16.41;16.39;16.24;15.50;12.73;0.75
65988;SPS30;53592;51.402;6.054;2023-09-19T05:25:27;3.23;3.12;2.58;1.80;14.50;14.47;14.33;13.62;11.10;0.75
65988;SPS30;53592;51.402;6.054;2023-09-19T05:28:02;3.36;3.24;2.67;1.85;14.92;14.89;14.74;13.99;11.38;0.77
65988;SPS30;53592;51.402;6.054;2023-09-19T05:30:28;4.02;3.87;3.14;2.11;17.03;16.99;16.81;15.85;12.76;0.80
65988;SPS30;53592;51.402;6.054;2023-09-19T05:32:54;3.62;3.48;2.83;1.91;15.36;15.32;15.15;14.30;11.52;0.80
65988;SPS30;53592;51.402;6.054;2023-09-19T05:35:21;3.60;3.47;2.85;1.98;15.91;15.89;15.72;14.92;12.12;0.77
65988;SPS30;53592;51.402;6.054;2023-09-19T05:37:47;3.21;3.11;2.61;1.89;15.21;15.18;15.05;14.40;11.86;0.74
65988;SPS30;53592;51.402;6.054;2023-09-19T05:40:16;3.09;3.00;2.54;1.87;15.04;15.02;14.90;14.30;11.84;0.73
65988;SPS30;53592;51.402;6.054;2023-09-19T05:42:42;3.26;3.16;2.65;1.91;15.39;15.36;15.23;14.56;11.99;0.74
65988;SPS30;53592;51.402;6.054;2023-09-19T05:45:11;3.62;3.50;2.90;2.04;16.45;16.42;16.27;15.48;12.65;0.75
65988;SPS30;53592;51.402;6.054;2023-09-19T05:47:37;3.42;3.30;2.72;1.89;15.19;15.17;15.01;14.25;11.59;0.76
65988;SPS30;53592;51.402;6.054;2023-09-19T05:50:10;3.61;3.48;2.87;2.00;16.13;16.10;15.94;15.14;12.33;0.76
65988;SPS30;53592;51.402;6.054;2023-09-19T05:52:37;3.59;3.46;2.83;1.93;15.58;15.55;15.39;14.57;11.79;0.77
65988;SPS30;53592;51.402;6.054;2023-09-19T05:55:06;3.66;3.53;2.88;1.96;15.80;15.77;15.60;14.75;11.92;0.78
65988;SPS30;53592;51.402;6.054;2023-09-19T05:57:33;3.61;3.48;2.82;1.91;15.36;15.32;15.16;14.30;11.53;0.77
65988;SPS30;53592;51.402;6.054;2023-09-19T05:59:59;3.43;3.31;2.71;1.86;14.99;14.97;14.81;14.02;11.36;0.76
65988;SPS30;53592;51.402;6.054;2023-09-19T06:02:24;3.57;3.45;2.82;1.94;15.60;15.57;15.41;14.59;11.82;0.75
65988;SPS30;53592;51.402;6.054;2023-09-19T06:07:25;3.36;3.24;2.69;1.89;15.20;15.17;15.03;14.30;11.68;0.74
65988;SPS30;53592;51.402;6.054;2023-09-19T06:09:51;3.43;3.32;2.77;1.98;15.93;15.90;15.76;15.03;12.34;0.73
65988;SPS30;53592;51.402;6.054;2023-09-19T06:12:19;3.32;3.23;2.74;2.03;16.31;16.28;16.16;15.51;12.86;0.71
65988;SPS30;53592;51.402;6.054;2023-09-19T06:14:44;3.18;3.09;2.62;1.94;15.58;15.56;15.44;14.82;12.28;0.73
65988;SPS30;53592;51.402;6.054;2023-09-19T06:17:10;3.38;3.27;2.73;1.94;15.63;15.61;15.46;14.75;12.09;0.73
65988;SPS30;53592;51.402;6.054;2023-09-19T06:19:35;3.34;3.23;2.72;1.97;15.83;15.81;15.67;14.99;12.35;0.72
65988;SPS30;53592;51.402;6.054;2023-09-19T06:22:01;3.33;3.22;2.70;1.94;15.61;15.59;15.45;14.76;12.14;0.72
65988;SPS30;53592;51.402;6.054;2023-09-19T06:24:27;3.27;3.16;2.64;1.89;15.19;15.16;15.03;14.34;11.77;0.72
65988;SPS30;53592;51.402;6.054;2023-09-19T06:26:53;3.44;3.32;2.75;1.93;15.51;15.49;15.34;14.59;11.90;0.73
65988;SPS30;53592;51.402;6.054;2023-09-19T06:29:20;4.42;4.27;3.55;2.51;20.19;20.15;19.97;19.02;15.56;0.73
65988;SPS30;53592;51.402;6.054;2023-09-19T06:31:46;3.27;3.17;2.65;1.90;15.27;15.25;15.11;14.43;11.86;0.72
65988;SPS30;53592;51.402;6.054;2023-09-19T06:34:12;3.28;3.18;2.68;1.95;15.66;15.64;15.51;14.84;12.24;0.71
65988;SPS30;53592;51.402;6.054;2023-09-19T06:36:40;3.19;3.10;2.66;2.00;16.08;16.05;15.94;15.35;12.78;0.70
65988;SPS30;53592;51.402;6.054;2023-09-19T06:39:06;3.23;3.14;2.70;2.04;16.36;16.34;16.22;15.63;13.03;0.70
65988;SPS30;53592;51.402;6.054;2023-09-19T06:41:32;3.37;3.27;2.76;2.02;16.20;16.18;16.04;15.37;12.70;0.72
65988;SPS30;53592;51.402;6.054;2023-09-19T06:43:57;3.08;2.98;2.49;1.78;14.36;14.33;14.21;13.56;11.14;0.73
65988;SPS30;53592;51.402;6.054;2023-09-19T06:46:23;3.68;3.55;2.93;2.04;16.43;16.40;16.23;15.42;12.55;0.75
65988;SPS30;53592;51.402;6.054;2023-09-19T06:48:48;3.53;3.42;2.84;2.02;16.27;16.24;16.09;15.34;12.57;0.74
65988;SPS30;53592;51.402;6.054;2023-09-19T06:51:14;3.18;3.08;2.58;1.85;14.92;14.89;14.76;14.10;11.59;0.73
65988;SPS30;53592;51.402;6.054;2023-09-19T06:53:41;3.29;3.19;2.67;1.91;15.37;15.35;15.21;14.52;11.93;0.73
65988;SPS30;53592;51.402;6.054;2023-09-19T06:56:06;3.72;3.59;2.96;2.07;16.64;16.61;16.45;15.62;12.72;0.74
65988;SPS30;53592;51.402;6.054;2023-09-19T06:58:32;3.15;3.04;2.51;1.74;14.04;14.02;13.88;13.18;10.73;0.75
65988;SPS30;53592;51.402;6.054;2023-09-19T07:00:57;3.28;3.17;2.60;1.78;14.37;14.34;14.19;13.44;10.90;0.75
65988;SPS30;53592;51.402;6.054;2023-09-19T07:03:23;3.09;2.98;2.44;1.69;13.59;13.57;13.43;12.73;10.33;0.76
65988;SPS30;53592;51.402;6.054;2023-09-19T07:05:51;3.10;3.00;2.51;1.80;14.50;14.48;14.35;13.71;11.27;0.74
65988;SPS30;53592;51.402;6.054;2023-09-19T07:08:18;3.43;3.32;2.77;1.98;15.93;15.90;15.76;15.04;12.34;0.73
65988;SPS30;53592;51.402;6.054;2023-09-19T07:10:45;3.41;3.29;2.73;1.91;15.40;15.38;15.23;14.49;11.82;0.74
65988;SPS30;53592;51.402;6.054;2023-09-19T07:13:13;3.40;3.29;2.69;1.85;14.92;14.90;14.74;13.97;11.33;0.75
65988;SPS30;53592;51.402;6.054;2023-09-19T07:15:41;3.79;3.66;3.01;2.09;16.82;16.79;16.62;15.77;12.82;0.75
65988;SPS30;53592;51.402;6.054;2023-09-19T07:18:12;3.35;3.23;2.63;1.79;14.38;14.35;14.20;13.42;10.84;0.77
65988;SPS30;53592;51.402;6.054;2023-09-19T07:20:39;3.29;3.17;2.56;1.72;13.82;13.80;13.64;12.85;10.32;0.78
65988;SPS30;53592;51.402;6.054;2023-09-19T07:23:17;3.75;3.61;2.90;1.91;15.42;15.39;15.20;14.28;11.42;0.78
65988;SPS30;53592;51.402;6.054;2023-09-19T07:25:44;3.23;3.11;2.50;1.65;13.32;13.29;13.13;12.34;9.87;0.77
65988;SPS30;53592;51.402;6.054;2023-09-19T07:28:11;3.31;3.19;2.60;1.78;14.31;14.28;14.13;13.36;10.81;0.75
65988;SPS30;53592;51.402;6.054;2023-09-19T07:30:37;3.35;3.23;2.64;1.82;14.62;14.59;14.44;13.67;11.08;0.76
65988;SPS30;53592;51.402;6.054;2023-09-19T07:33:04;3.36;3.24;2.64;1.80;14.52;14.49;14.33;13.56;10.96;0.78
65988;SPS30;53592;51.402;6.054;2023-09-19T07:35:30;3.52;3.40;2.77;1.89;15.23;15.20;15.04;14.23;11.50;0.79
65988;SPS30;53592;51.402;6.054;2023-09-19T07:37:56;3.96;3.80;3.01;1.93;15.56;15.52;15.32;14.30;11.31;0.82
65988;SPS30;53592;51.402;6.054;2023-09-19T07:40:23;3.93;3.77;2.98;1.89;15.30;15.26;15.06;14.04;11.07;0.82
65988;SPS30;53592;51.402;6.054;2023-09-19T07:42:52;3.63;3.49;2.78;1.79;14.48;14.44;14.26;13.34;10.59;0.80
65988;SPS30;53592;51.402;6.054;2023-09-19T07:45:17;3.62;3.48;2.79;1.83;14.74;14.71;14.53;13.63;10.88;0.78
65988;SPS30;53592;51.402;6.054;2023-09-19T07:47:44;3.56;3.43;2.77;1.85;14.94;14.91;14.74;13.88;11.15;0.78
65988;SPS30;53592;51.402;6.054;2023-09-19T07:50:10;3.47;3.34;2.71;1.82;14.66;14.63;14.47;13.64;10.98;0.76
65988;SPS30;53592;51.402;6.054;2023-09-19T07:52:36;3.29;3.17;2.60;1.78;14.35;14.32;14.17;13.42;10.87;0.74
65988;SPS30;53592;51.402;6.054;2023-09-19T07:55:04;3.07;2.96;2.43;1.68;13.55;13.52;13.39;12.70;10.31;0.74
65988;SPS30;53592;51.402;6.054;2023-09-19T07:57:35;3.29;3.17;2.58;1.75;14.13;14.10;13.95;13.18;10.65;0.76
65988;SPS30;53592;51.402;6.054;2023-09-19T08:00:01;3.53;3.39;2.74;1.83;14.72;14.69;14.52;13.67;10.97;0.78
65988;SPS30;53592;51.402;6.054;2023-09-19T08:02:29;3.42;3.30;2.66;1.77;14.29;14.26;14.09;13.27;10.64;0.78
65988;SPS30;53592;51.402;6.054;2023-09-19T08:04:58;3.67;3.53;2.83;1.86;14.99;14.96;14.78;13.87;11.08;0.78
65988;SPS30;53592;51.402;6.054;2023-09-19T08:07:25;3.26;3.14;2.53;1.68;13.56;13.53;13.38;12.59;10.09;0.75
65988;SPS30;53592;51.402;6.054;2023-09-19T08:09:51;3.51;3.38;2.74;1.83;14.76;14.73;14.56;13.72;11.03;0.74
65988;SPS30;53592;51.402;6.054;2023-09-19T08:12:16;3.70;3.57;2.92;2.01;16.16;16.13;15.96;15.11;12.25;0.73
65988;SPS30;53592;51.402;6.054;2023-09-19T08:14:42;3.04;2.94;2.42;1.69;13.57;13.55;13.42;12.74;10.37;0.72
65988;SPS30;53592;51.402;6.054;2023-09-19T08:17:07;3.53;3.41;2.80;1.95;15.68;15.65;15.49;14.71;11.96;0.74
65988;SPS30;53592;51.402;6.054;2023-09-19T08:19:33;3.50;3.38;2.76;1.89;15.20;15.17;15.01;14.20;11.49;0.76
65988;SPS30;53592;51.402;6.054;2023-09-19T08:21:59;3.46;3.33;2.68;1.78;14.34;14.31;14.15;13.31;10.66;0.78
65988;SPS30;53592;51.402;6.054;2023-09-19T08:24:26;3.87;3.72;2.98;1.95;15.76;15.73;15.54;14.58;11.63;0.78
65988;SPS30;53592;51.402;6.054;2023-09-19T08:26:54;3.56;3.43;2.75;1.82;14.64;14.61;14.43;13.56;10.84;0.78
65988;SPS30;53592;51.402;6.054;2023-09-19T08:29:20;3.53;3.40;2.73;1.81;14.57;14.54;14.37;13.51;10.81;0.78
65988;SPS30;53592;51.402;6.054;2023-09-19T08:31:46;3.55;3.42;2.75;1.83;14.73;14.70;14.53;13.66;10.95;0.78
65988;SPS30;53592;51.402;6.054;2023-09-19T08:34:14;3.91;3.75;3.00;1.95;15.76;15.72;15.53;14.55;11.58;0.79
65988;SPS30;53592;51.402;6.054;2023-09-19T08:36:40;3.93;3.78;3.02;1.97;15.87;15.84;15.64;14.66;11.67;0.78
65988;SPS30;53592;51.402;6.054;2023-09-19T08:39:08;3.41;3.28;2.62;1.71;13.79;13.76;13.59;12.74;10.14;0.78
65988;SPS30;53592;51.402;6.054;2023-09-19T08:41:34;3.49;3.36;2.70;1.77;14.30;14.27;14.10;13.24;10.57;0.78
65988;SPS30;53592;51.402;6.054;2023-09-19T08:43:59;3.58;3.44;2.75;1.79;14.43;14.40;14.22;13.32;10.60;0.80
65988;SPS30;53592;51.402;6.054;2023-09-19T08:46:30;3.18;3.06;2.45;1.60;12.92;12.89;12.74;11.95;9.53;0.79
65988;SPS30;53592;51.402;6.054;2023-09-19T08:49:01;3.58;3.45;2.79;1.87;15.05;15.02;14.85;14.00;11.25;0.78
65988;SPS30;53592;51.402;6.054;2023-09-19T08:51:32;3.37;3.24;2.61;1.72;13.90;13.87;13.71;12.88;10.31;0.78
65988;SPS30;53592;51.402;6.054;2023-09-19T08:56:51;3.55;3.42;2.75;1.81;14.63;14.60;14.42;13.55;10.84;0.76
65988;SPS30;53592;51.402;6.054;2023-09-19T08:59:21;3.57;3.43;2.77;1.85;14.88;14.85;14.67;13.81;11.08;0.77
65988;SPS30;53592;51.402;6.054;2023-09-19T09:01:49;3.43;3.31;2.71;1.85;14.93;14.90;14.74;13.95;11.30;0.75
65988;SPS30;53592;51.402;6.054;2023-09-19T09:04:18;3.04;2.93;2.40;1.65;13.31;13.29;13.15;12.46;10.10;0.74
65988;SPS30;53592;51.402;6.054;2023-09-19T09:06:45;3.06;2.96;2.44;1.70;13.68;13.66;13.52;12.84;10.46;0.73
65988;SPS30;53592;51.402;6.054;2023-09-19T09:09:15;3.31;3.20;2.61;1.79;14.39;14.36;14.21;13.45;10.89;0.75
65988;SPS30;53592;51.402;6.054;2023-09-19T09:11:40;3.62;3.49;2.81;1.87;15.10;15.07;14.89;14.02;11.25;0.77
65988;SPS30;53592;51.402;6.054;2023-09-19T09:14:07;3.34;3.22;2.61;1.76;14.21;14.18;14.02;13.24;10.67;0.76
65988;SPS30;53592;51.402;6.054;2023-09-19T09:16:32;3.17;3.05;2.45;1.61;12.99;12.96;12.80;12.03;9.61;0.77
65988;SPS30;53592;51.402;6.054;2023-09-19T09:18:59;3.47;3.33;2.65;1.70;13.75;13.72;13.54;12.66;10.03;0.77
65988;SPS30;53592;51.402;6.054;2023-09-19T09:21:26;3.81;3.66;2.91;1.89;15.22;15.19;15.00;14.03;11.15;0.77
65988;SPS30;53592;51.402;6.054;2023-09-19T09:23:53;3.28;3.16;2.55;1.69;13.63;13.60;13.44;12.65;10.14;0.76
65988;SPS30;53592;51.402;6.054;2023-09-19T09:26:37;3.44;3.32;2.73;1.88;15.13;15.10;14.95;14.17;11.50;0.74
65988;SPS30;53592;51.402;6.054;2023-09-19T09:29:12;3.10;3.00;2.50;1.78;14.29;14.27;14.14;13.48;11.05;0.73
65988;SPS30;53592;51.402;6.054;2023-09-19T09:31:38;3.00;2.91;2.45;1.78;14.32;14.30;14.18;13.57;11.20;0.72